sensor_id;sensor_type;location;lat;lon;timestamp;temperature;humidity
21502;DHT22;27639;48.674;9.242;2023-05-09T00:00:05;18.80;67.40
21502;DHT22;27639;48.674;9.242;2023-05-09T00:02:31;18.70;67.50
21502;DHT22;27639;48.674;9.242;2023-05-09T00:04:59;18.70;67.50
21502;DHT22;27639;48.674;9.242;2023-05-09T00:07:28;18.60;67.60
21502;DHT22;27639;48.674;9.242;2023-05-09T00:09:53;18.50;67.60
21502;DHT22;27639;48.674;9.242;2023-05-09T00:12:19;18.50;67.50
21502;DHT22;27639;48.674;9.242;2023-05-09T00:14:45;18.50;67.60
21502;DHT22;27639;48.674;9.242;2023-05-09T00:17:14;18.50;67.70
21502;DHT22;27639;48.674;9.242;2023-05-09T00:19:41;18.50;67.70
21502;DHT22;27639;48.674;9.242;2023-05-09T00:22:07;18.50;67.80
21502;DHT22;27639;48.674;9.242;2023-05-09T00:24:33;18.50;67.90
21502;DHT22;27639;48.674;9.242;2023-05-09T00:26:59;18.50;68.00
21502;DHT22;27639;48.674;9.242;2023-05-09T00:29:25;18.50;67.90
21502;DHT22;27639;48.674;9.242;2023-05-09T00:31:50;18.50;67.80
21502;DHT22;27639;48.674;9.242;2023-05-09T00:34:16;18.40;67.60
21502;DHT22;27639;48.674;9.242;2023-05-09T00:36:42;18.30;67.40
21502;DHT22;27639;48.674;9.242;2023-05-09T00:39:07;18.30;67.50
21502;DHT22;27639;48.674;9.242;2023-05-09T00:41:34;18.20;67.40
21502;DHT22;27639;48.674;9.242;2023-05-09T00:43:59;18.20;67.50
21502;DHT22;27639;48.674;9.242;2023-05-09T00:46:25;18.20;67.70
21502;DHT22;27639;48.674;9.242;2023-05-09T00:48:51;18.20;67.90
21502;DHT22;27639;48.674;9.242;2023-05-09T00:51:17;18.20;68.10
21502;DHT22;27639;48.674;9.242;2023-05-09T00:53:44;18.10;68.00
21502;DHT22;27639;48.674;9.242;2023-05-09T00:56:10;18.10;68.00
21502;DHT22;27639;48.674;9.242;2023-05-09T00:58:36;18.10;68.00
21502;DHT22;27639;48.674;9.242;2023-05-09T01:01:02;18.00;67.90
21502;DHT22;27639;48.674;9.242;2023-05-09T01:03:29;17.90;67.90
21502;DHT22;27639;48.674;9.242;2023-05-09T01:06:06;17.90;68.10
21502;DHT22;27639;48.674;9.242;2023-05-09T01:09:15;17.90;68.10
21502;DHT22;27639;48.674;9.242;2023-05-09T01:11:33;17.90;68.30
21502;DHT22;27639;48.674;9.242;2023-05-09T01:14:42;17.80;68.20
21502;DHT22;27639;48.674;9.242;2023-05-09T01:17:40;17.80;68.00
21502;DHT22;27639;48.674;9.242;2023-05-09T01:22:46;17.70;68.50
21502;DHT22;27639;48.674;9.242;2023-05-09T01:28:34;17.80;67.90
21502;DHT22;27639;48.674;9.242;2023-05-09T01:31:02;17.80;67.40
21502;DHT22;27639;48.674;9.242;2023-05-09T01:33:31;17.70;67.90
21502;DHT22;27639;48.674;9.242;2023-05-09T01:36:02;17.70;68.20
21502;DHT22;27639;48.674;9.242;2023-05-09T01:38:29;17.70;68.30
21502;DHT22;27639;48.674;9.242;2023-05-09T01:40:57;17.70;68.10
21502;DHT22;27639;48.674;9.242;2023-05-09T01:43:26;17.70;68.00
21502;DHT22;27639;48.674;9.242;2023-05-09T01:45:54;17.70;67.90
21502;DHT22;27639;48.674;9.242;2023-05-09T01:48:21;17.70;67.80
21502;DHT22;27639;48.674;9.242;2023-05-09T01:50:51;17.70;67.50
21502;DHT22;27639;48.674;9.242;2023-05-09T01:53:18;17.70;68.70
21502;DHT22;27639;48.674;9.242;2023-05-09T01:55:44;17.70;67.90
21502;DHT22;27639;48.674;9.242;2023-05-09T01:58:11;17.70;67.70
21502;DHT22;27639;48.674;9.242;2023-05-09T02:00:37;17.70;67.60
21502;DHT22;27639;48.674;9.242;2023-05-09T02:03:03;17.60;67.80
21502;DHT22;27639;48.674;9.242;2023-05-09T02:05:31;17.60;67.90
21502;DHT22;27639;48.674;9.242;2023-05-09T02:07:57;17.50;67.80
21502;DHT22;27639;48.674;9.242;2023-05-09T02:10:23;17.50;67.90
21502;DHT22;27639;48.674;9.242;2023-05-09T02:12:55;17.40;68.00
21502;DHT22;27639;48.674;9.242;2023-05-09T02:15:22;17.40;68.00
21502;DHT22;27639;48.674;9.242;2023-05-09T02:17:48;17.40;68.10
21502;DHT22;27639;48.674;9.242;2023-05-09T02:20:14;17.40;68.20
21502;DHT22;27639;48.674;9.242;2023-05-09T02:22:40;17.40;68.20
21502;DHT22;27639;48.674;9.242;2023-05-09T02:25:08;17.40;68.20
21502;DHT22;27639;48.674;9.242;2023-05-09T02:27:37;17.40;68.20
21502;DHT22;27639;48.674;9.242;2023-05-09T02:30:05;17.40;68.30
21502;DHT22;27639;48.674;9.242;2023-05-09T02:32:33;17.40;68.30
21502;DHT22;27639;48.674;9.242;2023-05-09T02:35:00;17.40;68.10
21502;DHT22;27639;48.674;9.242;2023-05-09T02:37:26;17.40;68.30
21502;DHT22;27639;48.674;9.242;2023-05-09T02:39:53;17.30;68.30
21502;DHT22;27639;48.674;9.242;2023-05-09T02:42:24;17.40;68.30
21502;DHT22;27639;48.674;9.242;2023-05-09T02:44:53;17.30;68.10
21502;DHT22;27639;48.674;9.242;2023-05-09T02:47:19;17.40;68.40
21502;DHT22;27639;48.674;9.242;2023-05-09T02:49:45;17.30;68.40
21502;DHT22;27639;48.674;9.242;2023-05-09T02:52:11;17.30;68.20
21502;DHT22;27639;48.674;9.242;2023-05-09T02:54:39;17.40;67.90
21502;DHT22;27639;48.674;9.242;2023-05-09T02:57:05;17.30;67.50
21502;DHT22;27639;48.674;9.242;2023-05-09T02:59:31;17.30;67.50
21502;DHT22;27639;48.674;9.242;2023-05-09T03:01:56;17.20;67.60
21502;DHT22;27639;48.674;9.242;2023-05-09T03:04:22;17.20;67.90
21502;DHT22;27639;48.674;9.242;2023-05-09T03:06:50;17.10;68.10
21502;DHT22;27639;48.674;9.242;2023-05-09T03:09:15;17.10;68.00
21502;DHT22;27639;48.674;9.242;2023-05-09T03:11:41;17.00;67.90
21502;DHT22;27639;48.674;9.242;2023-05-09T03:14:06;17.00;67.90
21502;DHT22;27639;48.674;9.242;2023-05-09T03:16:35;16.90;68.10
21502;DHT22;27639;48.674;9.242;2023-05-09T03:19:02;16.90;68.50
21502;DHT22;27639;48.674;9.242;2023-05-09T03:21:27;16.90;68.00
21502;DHT22;27639;48.674;9.242;2023-05-09T03:23:53;16.80;68.50
21502;DHT22;27639;48.674;9.242;2023-05-09T03:26:18;16.80;68.40
21502;DHT22;27639;48.674;9.242;2023-05-09T03:28:45;16.70;68.50
21502;DHT22;27639;48.674;9.242;2023-05-09T03:31:11;16.70;69.10
21502;DHT22;27639;48.674;9.242;2023-05-09T03:33:36;16.70;69.10
21502;DHT22;27639;48.674;9.242;2023-05-09T03:36:02;16.60;68.60
21502;DHT22;27639;48.674;9.242;2023-05-09T03:38:27;16.60;68.40
21502;DHT22;27639;48.674;9.242;2023-05-09T03:40:53;16.60;68.90
21502;DHT22;27639;48.674;9.242;2023-05-09T03:43:19;16.60;69.00
21502;DHT22;27639;48.674;9.242;2023-05-09T03:45:44;16.60;69.10
21502;DHT22;27639;48.674;9.242;2023-05-09T03:48:10;16.60;69.20
21502;DHT22;27639;48.674;9.242;2023-05-09T03:50:36;16.60;69.30
21502;DHT22;27639;48.674;9.242;2023-05-09T03:53:02;16.50;69.50
21502;DHT22;27639;48.674;9.242;2023-05-09T03:55:28;16.60;69.80
21502;DHT22;27639;48.674;9.242;2023-05-09T03:57:54;16.60;69.80
21502;DHT22;27639;48.674;9.242;2023-05-09T04:00:20;16.60;69.80
21502;DHT22;27639;48.674;9.242;2023-05-09T04:02:47;16.60;69.80
21502;DHT22;27639;48.674;9.242;2023-05-09T04:05:13;16.60;69.80
21502;DHT22;27639;48.674;9.242;2023-05-09T04:07:39;16.60;69.80
21502;DHT22;27639;48.674;9.242;2023-05-09T04:10:06;16.70;69.90
21502;DHT22;27639;48.674;9.242;2023-05-09T04:12:32;16.70;69.50
21502;DHT22;27639;48.674;9.242;2023-05-09T04:14:57;16.80;69.50
21502;DHT22;27639;48.674;9.242;2023-05-09T04:17:23;16.80;69.50
21502;DHT22;27639;48.674;9.242;2023-05-09T04:19:49;16.90;69.50
21502;DHT22;27639;48.674;9.242;2023-05-09T04:22:14;16.80;69.30
21502;DHT22;27639;48.674;9.242;2023-05-09T04:24:40;16.80;69.20
21502;DHT22;27639;48.674;9.242;2023-05-09T04:27:06;16.90;69.20
21502;DHT22;27639;48.674;9.242;2023-05-09T04:29:32;16.90;68.80
21502;DHT22;27639;48.674;9.242;2023-05-09T04:31:58;16.90;68.30
21502;DHT22;27639;48.674;9.242;2023-05-09T04:34:23;16.80;68.00
21502;DHT22;27639;48.674;9.242;2023-05-09T04:36:50;16.80;67.90
21502;DHT22;27639;48.674;9.242;2023-05-09T04:39:16;16.80;68.00
21502;DHT22;27639;48.674;9.242;2023-05-09T04:41:42;16.70;68.30
21502;DHT22;27639;48.674;9.242;2023-05-09T04:44:09;16.70;68.70
21502;DHT22;27639;48.674;9.242;2023-05-09T04:46:35;16.70;69.90
21502;DHT22;27639;48.674;9.242;2023-05-09T04:49:00;16.80;69.60
21502;DHT22;27639;48.674;9.242;2023-05-09T04:51:26;16.80;69.10
21502;DHT22;27639;48.674;9.242;2023-05-09T04:53:51;16.90;68.80
21502;DHT22;27639;48.674;9.242;2023-05-09T04:56:17;16.80;68.50
21502;DHT22;27639;48.674;9.242;2023-05-09T04:58:43;16.80;68.40
21502;DHT22;27639;48.674;9.242;2023-05-09T05:01:08;16.80;68.10
21502;DHT22;27639;48.674;9.242;2023-05-09T05:03:34;16.80;68.10
21502;DHT22;27639;48.674;9.242;2023-05-09T05:05:59;16.70;68.40
21502;DHT22;27639;48.674;9.242;2023-05-09T05:08:25;16.70;68.90
21502;DHT22;27639;48.674;9.242;2023-05-09T05:10:50;16.70;69.00
21502;DHT22;27639;48.674;9.242;2023-05-09T05:13:16;16.70;69.20
21502;DHT22;27639;48.674;9.242;2023-05-09T05:15:41;16.80;70.60
21502;DHT22;27639;48.674;9.242;2023-05-09T05:18:07;17.00;71.50
21502;DHT22;27639;48.674;9.242;2023-05-09T05:20:33;17.40;71.40
21502;DHT22;27639;48.674;9.242;2023-05-09T05:22:58;17.80;70.40
21502;DHT22;27639;48.674;9.242;2023-05-09T05:25:25;18.00;68.80
21502;DHT22;27639;48.674;9.242;2023-05-09T05:27:51;18.10;67.30
21502;DHT22;27639;48.674;9.242;2023-05-09T05:30:17;18.10;66.30
21502;DHT22;27639;48.674;9.242;2023-05-09T05:32:42;18.10;65.90
21502;DHT22;27639;48.674;9.242;2023-05-09T05:35:09;18.10;66.20
21502;DHT22;27639;48.674;9.242;2023-05-09T05:37:39;18.10;65.90
21502;DHT22;27639;48.674;9.242;2023-05-09T05:40:06;18.10;65.80
21502;DHT22;27639;48.674;9.242;2023-05-09T05:42:32;18.00;65.70
21502;DHT22;27639;48.674;9.242;2023-05-09T05:44:58;18.00;65.80
21502;DHT22;27639;48.674;9.242;2023-05-09T05:47:32;17.80;66.00
21502;DHT22;27639;48.674;9.242;2023-05-09T05:49:59;17.80;66.40
21502;DHT22;27639;48.674;9.242;2023-05-09T05:52:24;17.80;67.20
21502;DHT22;27639;48.674;9.242;2023-05-09T05:54:52;17.80;67.40
21502;DHT22;27639;48.674;9.242;2023-05-09T05:57:17;17.80;67.50
21502;DHT22;27639;48.674;9.242;2023-05-09T05:59:43;17.70;67.90
21502;DHT22;27639;48.674;9.242;2023-05-09T06:02:08;17.70;68.50
21502;DHT22;27639;48.674;9.242;2023-05-09T06:04:34;17.70;69.40
21502;DHT22;27639;48.674;9.242;2023-05-09T06:06:59;17.80;69.80
21502;DHT22;27639;48.674;9.242;2023-05-09T06:09:25;17.90;70.00
21502;DHT22;27639;48.674;9.242;2023-05-09T06:11:51;18.00;69.30
21502;DHT22;27639;48.674;9.242;2023-05-09T06:14:16;18.10;69.10
21502;DHT22;27639;48.674;9.242;2023-05-09T06:16:42;18.20;69.30
21502;DHT22;27639;48.674;9.242;2023-05-09T06:19:07;18.40;68.80
21502;DHT22;27639;48.674;9.242;2023-05-09T06:21:33;18.60;70.10
21502;DHT22;27639;48.674;9.242;2023-05-09T06:23:58;18.80;69.60
21502;DHT22;27639;48.674;9.242;2023-05-09T06:26:24;18.90;69.30
21502;DHT22;27639;48.674;9.242;2023-05-09T06:28:50;19.00;68.60
21502;DHT22;27639;48.674;9.242;2023-05-09T06:31:16;19.10;68.00
21502;DHT22;27639;48.674;9.242;2023-05-09T06:33:41;19.20;67.90
21502;DHT22;27639;48.674;9.242;2023-05-09T06:36:07;19.40;67.80
21502;DHT22;27639;48.674;9.242;2023-05-09T06:38:33;19.60;68.50
21502;DHT22;27639;48.674;9.242;2023-05-09T06:40:59;19.80;67.00
21502;DHT22;27639;48.674;9.242;2023-05-09T06:43:25;20.00;67.20
21502;DHT22;27639;48.674;9.242;2023-05-09T06:45:50;20.20;66.50
21502;DHT22;27639;48.674;9.242;2023-05-09T06:48:16;20.40;65.70
21502;DHT22;27639;48.674;9.242;2023-05-09T06:50:42;20.50;64.60
21502;DHT22;27639;48.674;9.242;2023-05-09T06:53:07;20.60;64.30
21502;DHT22;27639;48.674;9.242;2023-05-09T06:55:33;20.70;64.20
21502;DHT22;27639;48.674;9.242;2023-05-09T06:57:59;20.80;63.60
21502;DHT22;27639;48.674;9.242;2023-05-09T07:00:24;20.90;63.00
21502;DHT22;27639;48.674;9.242;2023-05-09T07:02:50;21.00;62.10
21502;DHT22;27639;48.674;9.242;2023-05-09T07:05:16;21.10;61.30
21502;DHT22;27639;48.674;9.242;2023-05-09T07:07:41;21.10;62.20
21502;DHT22;27639;48.674;9.242;2023-05-09T07:10:07;21.20;62.20
21502;DHT22;27639;48.674;9.242;2023-05-09T07:12:34;21.30;61.60
21502;DHT22;27639;48.674;9.242;2023-05-09T07:14:59;21.50;61.30
21502;DHT22;27639;48.674;9.242;2023-05-09T07:17:25;21.50;61.00
21502;DHT22;27639;48.674;9.242;2023-05-09T07:19:51;21.70;61.70
21502;DHT22;27639;48.674;9.242;2023-05-09T07:22:16;21.90;60.00
21502;DHT22;27639;48.674;9.242;2023-05-09T07:24:42;22.10;59.70
21502;DHT22;27639;48.674;9.242;2023-05-09T07:27:09;22.30;58.80
21502;DHT22;27639;48.674;9.242;2023-05-09T07:29:34;22.40;59.60
21502;DHT22;27639;48.674;9.242;2023-05-09T07:32:00;22.50;58.90
21502;DHT22;27639;48.674;9.242;2023-05-09T07:34:25;22.50;58.70
21502;DHT22;27639;48.674;9.242;2023-05-09T07:36:51;22.60;57.80
21502;DHT22;27639;48.674;9.242;2023-05-09T07:39:17;22.70;57.00
21502;DHT22;27639;48.674;9.242;2023-05-09T07:41:42;22.60;56.80
21502;DHT22;27639;48.674;9.242;2023-05-09T07:44:08;22.70;56.90
21502;DHT22;27639;48.674;9.242;2023-05-09T07:46:37;22.70;57.60
21502;DHT22;27639;48.674;9.242;2023-05-09T07:49:04;22.70;57.80
21502;DHT22;27639;48.674;9.242;2023-05-09T07:51:30;22.80;57.00
21502;DHT22;27639;48.674;9.242;2023-05-09T07:53:56;22.90;56.30
21502;DHT22;27639;48.674;9.242;2023-05-09T07:56:22;22.90;56.00
21502;DHT22;27639;48.674;9.242;2023-05-09T07:58:48;22.80;55.60
21502;DHT22;27639;48.674;9.242;2023-05-09T08:01:14;22.90;55.20
21502;DHT22;27639;48.674;9.242;2023-05-09T08:03:39;22.70;54.70
21502;DHT22;27639;48.674;9.242;2023-05-09T08:06:06;22.70;55.40
21502;DHT22;27639;48.674;9.242;2023-05-09T08:08:31;22.70;55.00
21502;DHT22;27639;48.674;9.242;2023-05-09T08:10:57;22.60;55.20
21502;DHT22;27639;48.674;9.242;2023-05-09T08:13:23;22.60;56.50
21502;DHT22;27639;48.674;9.242;2023-05-09T08:15:49;22.70;56.40
21502;DHT22;27639;48.674;9.242;2023-05-09T08:18:14;22.90;55.50
21502;DHT22;27639;48.674;9.242;2023-05-09T08:20:40;23.00;55.10
21502;DHT22;27639;48.674;9.242;2023-05-09T08:23:06;23.00;54.80
21502;DHT22;27639;48.674;9.242;2023-05-09T08:25:31;23.00;54.40
21502;DHT22;27639;48.674;9.242;2023-05-09T08:27:57;23.00;54.40
21502;DHT22;27639;48.674;9.242;2023-05-09T08:30:23;23.10;54.30
21502;DHT22;27639;48.674;9.242;2023-05-09T08:32:49;23.00;54.30
21502;DHT22;27639;48.674;9.242;2023-05-09T08:35:14;23.00;54.20
21502;DHT22;27639;48.674;9.242;2023-05-09T08:37:40;23.00;54.80
21502;DHT22;27639;48.674;9.242;2023-05-09T08:40:06;23.00;54.20
21502;DHT22;27639;48.674;9.242;2023-05-09T08:42:32;23.20;54.50
21502;DHT22;27639;48.674;9.242;2023-05-09T08:45:04;23.30;53.60
21502;DHT22;27639;48.674;9.242;2023-05-09T08:47:34;23.50;53.80
21502;DHT22;27639;48.674;9.242;2023-05-09T08:50:01;23.60;53.80
21502;DHT22;27639;48.674;9.242;2023-05-09T08:52:29;23.70;54.10
21502;DHT22;27639;48.674;9.242;2023-05-09T08:54:55;23.80;53.10
21502;DHT22;27639;48.674;9.242;2023-05-09T08:57:21;23.90;54.10
21502;DHT22;27639;48.674;9.242;2023-05-09T08:59:48;23.80;53.70
21502;DHT22;27639;48.674;9.242;2023-05-09T09:02:13;23.80;53.90
21502;DHT22;27639;48.674;9.242;2023-05-09T09:04:39;23.90;54.10
21502;DHT22;27639;48.674;9.242;2023-05-09T09:07:05;23.90;54.10
21502;DHT22;27639;48.674;9.242;2023-05-09T09:09:34;23.90;53.50
21502;DHT22;27639;48.674;9.242;2023-05-09T09:12:05;23.90;53.00
21502;DHT22;27639;48.674;9.242;2023-05-09T09:14:32;23.80;52.60
21502;DHT22;27639;48.674;9.242;2023-05-09T09:16:59;23.70;53.50
21502;DHT22;27639;48.674;9.242;2023-05-09T09:19:29;23.70;54.00
21502;DHT22;27639;48.674;9.242;2023-05-09T09:21:59;23.70;53.00
21502;DHT22;27639;48.674;9.242;2023-05-09T09:24:25;23.60;53.00
21502;DHT22;27639;48.674;9.242;2023-05-09T09:26:51;23.50;53.30
21502;DHT22;27639;48.674;9.242;2023-05-09T09:29:18;23.40;53.80
21502;DHT22;27639;48.674;9.242;2023-05-09T09:31:46;23.20;54.50
21502;DHT22;27639;48.674;9.242;2023-05-09T09:34:13;23.20;55.30
21502;DHT22;27639;48.674;9.242;2023-05-09T09:36:43;23.10;54.00
21502;DHT22;27639;48.674;9.242;2023-05-09T09:39:12;23.10;54.80
21502;DHT22;27639;48.674;9.242;2023-05-09T09:41:38;23.20;54.50
21502;DHT22;27639;48.674;9.242;2023-05-09T09:44:08;23.20;55.00
21502;DHT22;27639;48.674;9.242;2023-05-09T09:46:50;23.30;55.20
21502;DHT22;27639;48.674;9.242;2023-05-09T09:49:23;23.30;55.20
21502;DHT22;27639;48.674;9.242;2023-05-09T09:51:54;23.50;55.10
21502;DHT22;27639;48.674;9.242;2023-05-09T09:54:20;23.70;55.40
21502;DHT22;27639;48.674;9.242;2023-05-09T09:56:48;23.80;55.10
21502;DHT22;27639;48.674;9.242;2023-05-09T09:59:16;23.90;54.60
21502;DHT22;27639;48.674;9.242;2023-05-09T10:01:58;24.00;53.90
21502;DHT22;27639;48.674;9.242;2023-05-09T10:04:30;24.10;52.90
21502;DHT22;27639;48.674;9.242;2023-05-09T10:06:56;24.00;53.10
21502;DHT22;27639;48.674;9.242;2023-05-09T10:09:27;23.90;53.50
21502;DHT22;27639;48.674;9.242;2023-05-09T10:11:54;24.00;53.70
21502;DHT22;27639;48.674;9.242;2023-05-09T10:14:24;24.00;54.60
21502;DHT22;27639;48.674;9.242;2023-05-09T10:16:53;24.20;54.40
21502;DHT22;27639;48.674;9.242;2023-05-09T10:19:20;24.30;54.50
21502;DHT22;27639;48.674;9.242;2023-05-09T10:21:54;24.50;53.40
21502;DHT22;27639;48.674;9.242;2023-05-09T10:27:04;24.60;52.20
21502;DHT22;27639;48.674;9.242;2023-05-09T10:29:36;24.70;52.20
21502;DHT22;27639;48.674;9.242;2023-05-09T10:32:28;24.80;52.00
21502;DHT22;27639;48.674;9.242;2023-05-09T10:34:53;24.80;51.40
21502;DHT22;27639;48.674;9.242;2023-05-09T10:37:23;24.80;52.60
21502;DHT22;27639;48.674;9.242;2023-05-09T10:39:49;24.80;53.00
21502;DHT22;27639;48.674;9.242;2023-05-09T10:42:19;24.80;52.50
21502;DHT22;27639;48.674;9.242;2023-05-09T10:44:48;24.80;52.00
21502;DHT22;27639;48.674;9.242;2023-05-09T10:47:14;24.90;52.40
21502;DHT22;27639;48.674;9.242;2023-05-09T10:49:40;25.00;52.30
21502;DHT22;27639;48.674;9.242;2023-05-09T10:52:06;25.20;51.80
21502;DHT22;27639;48.674;9.242;2023-05-09T10:54:31;25.20;51.40
21502;DHT22;27639;48.674;9.242;2023-05-09T10:57:00;25.40;50.90
21502;DHT22;27639;48.674;9.242;2023-05-09T10:59:37;25.40;51.30
21502;DHT22;27639;48.674;9.242;2023-05-09T11:02:10;25.30;50.40
21502;DHT22;27639;48.674;9.242;2023-05-09T11:04:38;25.30;51.00
21502;DHT22;27639;48.674;9.242;2023-05-09T11:07:39;25.40;50.70
21502;DHT22;27639;48.674;9.242;2023-05-09T11:10:07;25.40;50.50
21502;DHT22;27639;48.674;9.242;2023-05-09T11:12:33;25.40;50.70
21502;DHT22;27639;48.674;9.242;2023-05-09T11:15:06;25.40;50.50
21502;DHT22;27639;48.674;9.242;2023-05-09T11:17:37;25.40;50.80
21502;DHT22;27639;48.674;9.242;2023-05-09T11:20:04;25.60;50.30
21502;DHT22;27639;48.674;9.242;2023-05-09T11:22:37;25.70;51.10
21502;DHT22;27639;48.674;9.242;2023-05-09T11:25:05;25.80;50.60
21502;DHT22;27639;48.674;9.242;2023-05-09T11:27:44;25.80;49.80
21502;DHT22;27639;48.674;9.242;2023-05-09T11:30:12;26.00;50.10
21502;DHT22;27639;48.674;9.242;2023-05-09T11:35:09;26.20;49.70
21502;DHT22;27639;48.674;9.242;2023-05-09T11:40:11;26.30;48.30
21502;DHT22;27639;48.674;9.242;2023-05-09T11:42:41;26.30;48.70
21502;DHT22;27639;48.674;9.242;2023-05-09T11:45:08;26.20;48.00
21502;DHT22;27639;48.674;9.242;2023-05-09T11:47:36;26.20;47.20
21502;DHT22;27639;48.674;9.242;2023-05-09T11:50:02;26.20;46.30
21502;DHT22;27639;48.674;9.242;2023-05-09T11:52:31;26.10;45.80
21502;DHT22;27639;48.674;9.242;2023-05-09T11:54:57;26.10;46.00
21502;DHT22;27639;48.674;9.242;2023-05-09T11:57:23;26.20;46.00
21502;DHT22;27639;48.674;9.242;2023-05-09T11:59:49;26.30;46.00
21502;DHT22;27639;48.674;9.242;2023-05-09T12:02:15;26.30;46.30
21502;DHT22;27639;48.674;9.242;2023-05-09T12:04:41;26.40;45.60
21502;DHT22;27639;48.674;9.242;2023-05-09T12:07:06;26.50;44.50
21502;DHT22;27639;48.674;9.242;2023-05-09T12:09:35;26.50;44.20
21502;DHT22;27639;48.674;9.242;2023-05-09T12:12:08;26.30;45.20
21502;DHT22;27639;48.674;9.242;2023-05-09T12:14:36;26.30;45.30
21502;DHT22;27639;48.674;9.242;2023-05-09T12:17:01;26.30;45.60
21502;DHT22;27639;48.674;9.242;2023-05-09T12:19:27;26.30;46.80
21502;DHT22;27639;48.674;9.242;2023-05-09T12:21:56;26.30;45.90
21502;DHT22;27639;48.674;9.242;2023-05-09T12:24:23;26.50;44.90
21502;DHT22;27639;48.674;9.242;2023-05-09T12:26:51;26.40;44.40
21502;DHT22;27639;48.674;9.242;2023-05-09T12:29:17;26.40;44.20
21502;DHT22;27639;48.674;9.242;2023-05-09T12:31:43;26.30;44.30
21502;DHT22;27639;48.674;9.242;2023-05-09T12:34:10;26.30;44.90
21502;DHT22;27639;48.674;9.242;2023-05-09T12:36:36;26.40;45.10
21502;DHT22;27639;48.674;9.242;2023-05-09T12:39:09;26.40;44.50
21502;DHT22;27639;48.674;9.242;2023-05-09T12:41:42;26.50;44.40
21502;DHT22;27639;48.674;9.242;2023-05-09T12:44:08;26.50;44.60
21502;DHT22;27639;48.674;9.242;2023-05-09T12:46:34;26.40;45.20
21502;DHT22;27639;48.674;9.242;2023-05-09T12:49:00;26.50;44.60
21502;DHT22;27639;48.674;9.242;2023-05-09T12:51:26;26.70;44.10
21502;DHT22;27639;48.674;9.242;2023-05-09T12:53:51;26.70;44.00
21502;DHT22;27639;48.674;9.242;2023-05-09T12:56:19;26.70;44.30
21502;DHT22;27639;48.674;9.242;2023-05-09T12:58:49;26.70;44.50
21502;DHT22;27639;48.674;9.242;2023-05-09T13:01:16;26.70;44.00
21502;DHT22;27639;48.674;9.242;2023-05-09T13:03:42;26.60;43.50
21502;DHT22;27639;48.674;9.242;2023-05-09T13:06:13;26.60;43.80
21502;DHT22;27639;48.674;9.242;2023-05-09T13:08:39;26.50;43.70
21502;DHT22;27639;48.674;9.242;2023-05-09T13:11:08;26.40;43.80
21502;DHT22;27639;48.674;9.242;2023-05-09T13:13:33;26.30;44.00
21502;DHT22;27639;48.674;9.242;2023-05-09T13:15:59;26.20;44.60
21502;DHT22;27639;48.674;9.242;2023-05-09T13:18:25;26.00;43.80
21502;DHT22;27639;48.674;9.242;2023-05-09T13:20:50;26.00;43.80
21502;DHT22;27639;48.674;9.242;2023-05-09T13:23:17;25.90;44.00
21502;DHT22;27639;48.674;9.242;2023-05-09T13:25:43;25.90;44.20
21502;DHT22;27639;48.674;9.242;2023-05-09T13:28:08;25.90;44.80
21502;DHT22;27639;48.674;9.242;2023-05-09T13:30:34;25.90;44.50
21502;DHT22;27639;48.674;9.242;2023-05-09T13:33:00;26.00;44.30
21502;DHT22;27639;48.674;9.242;2023-05-09T13:35:25;26.10;44.20
21502;DHT22;27639;48.674;9.242;2023-05-09T13:37:51;26.00;45.10
21502;DHT22;27639;48.674;9.242;2023-05-09T13:40:17;26.00;45.00
21502;DHT22;27639;48.674;9.242;2023-05-09T13:42:43;25.90;45.00
21502;DHT22;27639;48.674;9.242;2023-05-09T13:45:09;25.90;45.40
21502;DHT22;27639;48.674;9.242;2023-05-09T13:47:34;25.90;45.60
21502;DHT22;27639;48.674;9.242;2023-05-09T13:50:01;25.90;45.60
21502;DHT22;27639;48.674;9.242;2023-05-09T13:52:26;25.90;45.60
21502;DHT22;27639;48.674;9.242;2023-05-09T13:54:52;25.90;45.10
21502;DHT22;27639;48.674;9.242;2023-05-09T13:57:18;25.90;45.40
21502;DHT22;27639;48.674;9.242;2023-05-09T13:59:43;25.80;45.30
21502;DHT22;27639;48.674;9.242;2023-05-09T14:02:09;25.80;46.00
21502;DHT22;27639;48.674;9.242;2023-05-09T14:04:38;25.80;46.20
21502;DHT22;27639;48.674;9.242;2023-05-09T14:07:03;25.70;46.30
21502;DHT22;27639;48.674;9.242;2023-05-09T14:09:29;25.70;46.50
21502;DHT22;27639;48.674;9.242;2023-05-09T14:11:55;25.60;47.40
21502;DHT22;27639;48.674;9.242;2023-05-09T14:14:22;25.40;48.80
21502;DHT22;27639;48.674;9.242;2023-05-09T14:16:50;25.20;50.10
21502;DHT22;27639;48.674;9.242;2023-05-09T14:19:16;25.00;51.30
21502;DHT22;27639;48.674;9.242;2023-05-09T14:21:42;24.60;52.60
21502;DHT22;27639;48.674;9.242;2023-05-09T14:24:09;24.30;52.60
21502;DHT22;27639;48.674;9.242;2023-05-09T14:26:35;24.10;51.60
21502;DHT22;27639;48.674;9.242;2023-05-09T14:29:02;23.90;52.10
21502;DHT22;27639;48.674;9.242;2023-05-09T14:31:28;23.70;51.80
21502;DHT22;27639;48.674;9.242;2023-05-09T14:33:54;23.50;52.40
21502;DHT22;27639;48.674;9.242;2023-05-09T14:36:19;23.20;52.00
21502;DHT22;27639;48.674;9.242;2023-05-09T14:38:45;23.10;52.80
21502;DHT22;27639;48.674;9.242;2023-05-09T14:41:12;23.00;53.00
21502;DHT22;27639;48.674;9.242;2023-05-09T14:43:38;22.80;53.60
21502;DHT22;27639;48.674;9.242;2023-05-09T14:46:04;22.80;55.10
21502;DHT22;27639;48.674;9.242;2023-05-09T14:48:30;22.80;55.70
21502;DHT22;27639;48.674;9.242;2023-05-09T14:50:55;22.80;56.10
21502;DHT22;27639;48.674;9.242;2023-05-09T14:53:24;22.80;56.10
21502;DHT22;27639;48.674;9.242;2023-05-09T14:55:50;22.80;55.40
21502;DHT22;27639;48.674;9.242;2023-05-09T14:58:16;22.80;55.10
21502;DHT22;27639;48.674;9.242;2023-05-09T15:00:43;22.80;55.60
21502;DHT22;27639;48.674;9.242;2023-05-09T15:03:09;22.90;56.30
21502;DHT22;27639;48.674;9.242;2023-05-09T15:05:35;22.90;56.50
21502;DHT22;27639;48.674;9.242;2023-05-09T15:08:01;22.90;55.40
21502;DHT22;27639;48.674;9.242;2023-05-09T15:10:27;23.00;57.10
21502;DHT22;27639;48.674;9.242;2023-05-09T15:12:52;23.10;56.40
21502;DHT22;27639;48.674;9.242;2023-05-09T15:15:20;23.10;56.40
21502;DHT22;27639;48.674;9.242;2023-05-09T15:17:47;23.20;55.90
21502;DHT22;27639;48.674;9.242;2023-05-09T15:20:13;23.20;55.30
21502;DHT22;27639;48.674;9.242;2023-05-09T15:22:40;23.30;55.20
21502;DHT22;27639;48.674;9.242;2023-05-09T15:25:06;23.30;55.20
21502;DHT22;27639;48.674;9.242;2023-05-09T15:27:32;23.40;55.00
21502;DHT22;27639;48.674;9.242;2023-05-09T15:29:57;23.40;55.40
21502;DHT22;27639;48.674;9.242;2023-05-09T15:32:23;23.40;55.40
21502;DHT22;27639;48.674;9.242;2023-05-09T15:34:49;23.50;54.80
21502;DHT22;27639;48.674;9.242;2023-05-09T15:37:14;23.40;55.00
21502;DHT22;27639;48.674;9.242;2023-05-09T15:39:41;23.50;55.00
21502;DHT22;27639;48.674;9.242;2023-05-09T15:42:12;23.50;54.30